createdAt,value
2022-08-14T00:00:40.951Z,61.96
2022-08-14T00:03:20.383Z,61.95
2022-08-14T00:06:02.412Z,61.95
2022-08-14T00:08:55.066Z,61.99
2022-08-14T00:11:48.505Z,61.93
2022-08-14T00:14:57.759Z,61.99
2022-08-14T00:18:30.584Z,62.03
2022-08-14T00:21:50.096Z,62.09
2022-08-14T00:24:37.317Z,62.19
2022-08-14T00:27:09.527Z,62.22
2022-08-14T00:29:51.606Z,62.18
2022-08-14T00:33:14.536Z,62.27
2022-08-14T00:36:47.809Z,62.41
2022-08-14T00:39:09.316Z,62.41
2022-08-14T00:41:39.309Z,62.44
2022-08-14T00:44:26.734Z,62.48
2022-08-14T00:47:24.178Z,62.59
2022-08-14T00:50:02.175Z,62.67
2022-08-14T00:52:37.682Z,62.52
2022-08-14T00:55:19.523Z,62.80
2022-08-14T00:58:08.030Z,62.73
2022-08-14T01:00:57.420Z,62.66
2022-08-14T01:03:42.957Z,62.78
2022-08-14T01:06:23.172Z,62.74
2022-08-14T01:09:44.090Z,62.82
2022-08-14T01:12:26.394Z,62.89
2022-08-14T01:15:20.440Z,62.91
2022-08-14T01:18:31.190Z,63.00
2022-08-14T01:21:08.608Z,63.03
2022-08-14T01:23:46.734Z,63.22
2022-08-14T01:26:39.214Z,63.12
2022-08-14T01:29:40.388Z,63.26
2022-08-14T01:32:11.289Z,63.12
2022-08-14T01:35:18.268Z,63.29
2022-08-14T01:37:54.920Z,63.28
2022-08-14T01:40:47.999Z,63.38
2022-08-14T01:43:56.274Z,63.61
2022-08-14T01:46:38.230Z,63.72
2022-08-14T01:49:15.120Z,63.72
2022-08-14T01:51:46.548Z,63.91
2022-08-14T01:54:38.436Z,63.95
2022-08-14T01:57:10.933Z,63.94
2022-08-14T02:00:03.225Z,64.26
2022-08-14T02:02:43.707Z,64.36
2022-08-14T02:05:28.877Z,64.43
2022-08-14T02:08:09.660Z,64.28
2022-08-14T02:10:47.389Z,64.42
2022-08-14T02:13:20.389Z,64.38
2022-08-14T02:16:22.129Z,64.69
2022-08-14T02:18:52.227Z,64.68
2022-08-14T02:21:47.159Z,64.73
2022-08-14T02:24:45.018Z,64.79
2022-08-14T02:28:24.749Z,64.90
2022-08-14T02:30:26.562Z,65.03
2022-08-14T02:33:00.745Z,65.22
2022-08-14T02:35:34.177Z,65.14
2022-08-14T02:38:29.387Z,65.30
2022-08-14T02:40:58.986Z,65.48
2022-08-14T02:43:48.451Z,65.79
2022-08-14T02:46:44.321Z,65.80
2022-08-14T02:49:38.197Z,65.60
2022-08-14T02:52:26.987Z,65.88
2022-08-14T02:55:15.616Z,66.04
2022-08-14T02:57:58.047Z,66.12
2022-08-14T03:01:01.491Z,66.02
2022-08-14T03:03:55.622Z,65.88
2022-08-14T03:07:07.284Z,66.19
2022-08-14T03:10:28.244Z,66.14
2022-08-14T03:12:47.465Z,66.00
2022-08-14T03:15:38.982Z,66.16
2022-08-14T03:18:14.004Z,66.35
2022-08-14T03:21:04.694Z,66.28
2022-08-14T03:23:38.641Z,66.55
2022-08-14T03:26:18.286Z,66.55
2022-08-14T03:29:20.107Z,66.57
2022-08-14T03:31:58.896Z,66.78
2022-08-14T03:34:47.918Z,66.84
2022-08-14T03:39:09.160Z,66.85
2022-08-14T03:40:24.462Z,66.82
2022-08-14T03:42:55.875Z,66.88
2022-08-14T03:45:40.563Z,66.83
2022-08-14T03:48:40.485Z,67.08
2022-08-14T03:51:33.695Z,67.13
2022-08-14T03:54:08.778Z,67.18
2022-08-14T03:56:54.326Z,67.07
2022-08-14T03:59:42.939Z,67.10
2022-08-14T04:02:53.424Z,67.24
2022-08-14T04:05:42.874Z,67.44
2022-08-14T04:08:36.543Z,67.52
2022-08-14T04:11:22.525Z,67.54
2022-08-14T04:14:24.382Z,67.47
2022-08-14T04:17:10.068Z,67.44
2022-08-14T04:19:45.300Z,67.44
2022-08-14T04:22:36.677Z,67.54
2022-08-14T04:25:14.604Z,67.67
2022-08-14T04:28:03.406Z,67.68
2022-08-14T04:31:00.535Z,67.88
2022-08-14T04:34:20.605Z,67.92
2022-08-14T04:37:31.111Z,67.80
2022-08-14T04:40:40.239Z,67.93
2022-08-14T04:43:39.313Z,68.14
2022-08-14T04:46:56.639Z,68.13
2022-08-14T04:49:15.115Z,68.05
2022-08-14T04:51:55.430Z,68.13
2022-08-14T04:54:50.215Z,68.02
2022-08-14T04:57:32.427Z,67.88
2022-08-14T05:00:18.266Z,67.94
2022-08-14T05:03:07.445Z,68.18
2022-08-14T05:05:58.594Z,68.17
2022-08-14T05:08:56.653Z,68.36
2022-08-14T05:11:26.832Z,68.22
2022-08-14T05:14:45.572Z,68.19
2022-08-14T05:17:02.006Z,68.33
2022-08-14T05:19:44.376Z,68.39
2022-08-14T05:22:27.854Z,68.36
2022-08-14T05:24:56.875Z,68.52
2022-08-14T05:27:33.341Z,68.52
2022-08-14T05:31:01.239Z,68.26
2022-08-14T05:34:11.247Z,68.12
2022-08-14T05:37:02.452Z,68.29
2022-08-14T05:39:52.082Z,68.29
2022-08-14T05:42:41.089Z,68.17
2022-08-14T05:45:45.849Z,68.21
2022-08-14T05:48:42.792Z,68.06
2022-08-14T05:51:12.867Z,68.01
2022-08-14T05:54:11.433Z,67.81
2022-08-14T05:56:56.797Z,67.77
2022-08-14T06:00:08.092Z,67.79
2022-08-14T06:02:51.481Z,67.68
2022-08-14T06:05:33.408Z,67.49
2022-08-14T06:08:31.131Z,67.49
2022-08-14T06:11:20.272Z,67.24
2022-08-14T06:14:02.194Z,66.88
2022-08-14T06:16:44.650Z,66.82
2022-08-14T06:19:42.991Z,66.75
2022-08-14T06:22:53.151Z,66.57
2022-08-14T06:25:44.217Z,66.42
2022-08-14T06:28:34.814Z,66.15
2022-08-14T06:31:24.043Z,65.89
2022-08-14T06:35:11.764Z,65.86
2022-08-14T06:37:06.297Z,65.76
2022-08-14T06:40:26.804Z,65.61
2022-08-14T06:43:00.035Z,65.62
2022-08-14T06:45:30.789Z,65.48
2022-08-14T06:48:17.334Z,65.54
2022-08-14T06:51:06.467Z,65.34
2022-08-14T06:54:15.379Z,65.20
2022-08-14T06:57:09.870Z,65.12
2022-08-14T06:59:58.744Z,65.11
2022-08-14T07:02:58.722Z,65.39
2022-08-14T07:05:57.647Z,65.22
2022-08-14T07:08:31.093Z,65.26
2022-08-14T07:11:45.905Z,64.98
2022-08-14T07:14:43.177Z,64.61
2022-08-14T07:17:14.998Z,64.70
2022-08-14T07:19:44.774Z,64.53
2022-08-14T07:22:20.592Z,64.27
2022-08-14T07:24:52.306Z,63.98
2022-08-14T07:27:33.580Z,63.76
2022-08-14T07:30:34.619Z,63.23
2022-08-14T07:32:59.550Z,62.61
2022-08-14T07:35:30.400Z,62.20
2022-08-14T07:38:19.918Z,61.58
2022-08-14T07:40:53.064Z,60.86
2022-08-14T07:43:23.109Z,59.78
2022-08-14T07:46:21.388Z,59.11
2022-08-14T07:48:57.662Z,58.80
2022-08-14T07:51:34.425Z,58.23
2022-08-14T07:54:11.002Z,57.93
2022-08-14T07:56:46.921Z,57.74
2022-08-14T07:59:20.178Z,57.34
2022-08-14T08:02:18.056Z,56.59
2022-08-14T08:04:59.134Z,55.64
2022-08-14T08:07:31.420Z,54.34
2022-08-14T08:10:46.826Z,53.01
2022-08-14T08:13:16.680Z,51.65
2022-08-14T08:15:57.670Z,50.75
2022-08-14T08:18:29.554Z,49.52
2022-08-14T08:21:00.670Z,48.73
2022-08-14T08:23:51.215Z,47.52
2022-08-14T08:34:47.588Z,43.20
2022-08-14T08:37:30.670Z,41.91
2022-08-14T08:40:32.386Z,41.04
2022-08-14T08:43:01.942Z,39.91
2022-08-14T08:45:36.206Z,39.18
2022-08-14T08:48:18.443Z,38.87
2022-08-14T08:50:50.903Z,38.53
2022-08-14T08:53:33.313Z,37.33
2022-08-14T08:56:10.173Z,36.91
2022-08-14T08:58:53.830Z,36.84
2022-08-14T09:01:42.839Z,35.90
2022-08-14T09:04:20.064Z,36.50
2022-08-14T09:07:00.015Z,37.23
2022-08-14T09:09:54.369Z,38.01
2022-08-14T09:12:34.861Z,38.61
2022-08-14T09:15:11.924Z,38.88
2022-08-14T09:17:44.404Z,39.57
2022-08-14T09:20:25.927Z,40.55
2022-08-14T09:23:00.114Z,41.09
2022-08-14T09:26:00.276Z,41.67
2022-08-14T09:28:37.208Z,42.17
2022-08-14T09:31:17.930Z,42.62
2022-08-14T09:34:09.367Z,42.78
2022-08-14T09:37:34.599Z,42.82
2022-08-14T09:40:25.586Z,42.69
2022-08-14T09:52:23.670Z,41.01
2022-08-14T09:56:24.427Z,40.89
2022-08-14T10:04:50.381Z,42.16
2022-08-14T10:07:49.990Z,42.18
2022-08-14T10:10:44.629Z,41.69
2022-08-14T10:14:35.389Z,40.68
2022-08-14T10:17:08.604Z,39.78
2022-08-14T10:20:40.758Z,38.18
2022-08-14T10:23:18.360Z,37.13
2022-08-14T10:26:04.672Z,36.52
2022-08-14T10:29:19.306Z,35.75
2022-08-14T10:32:36.211Z,34.75
2022-08-14T10:35:31.103Z,33.25
2022-08-14T10:43:44.134Z,29.84
2022-08-14T10:52:01.212Z,26.87
2022-08-14T10:56:21.601Z,26.29
2022-08-14T11:01:00.460Z,24.64
2022-08-14T11:03:56.351Z,24.09
2022-08-14T11:12:33.882Z,22.32
2022-08-14T11:19:27.079Z,20.40
2022-08-14T11:26:02.876Z,19.78
2022-08-14T11:28:48.640Z,19.12
2022-08-14T11:38:44.971Z,17.58
2022-08-14T11:49:41.706Z,16.83
2022-08-14T11:55:05.685Z,18.38
2022-08-14T11:58:08.847Z,19.18
2022-08-14T12:00:49.008Z,19.46
2022-08-14T12:03:27.158Z,20.17
2022-08-14T12:06:29.144Z,20.93
2022-08-14T12:09:04.630Z,22.57
2022-08-14T12:11:47.140Z,23.57
2022-08-14T12:14:30.798Z,24.42
2022-08-14T12:17:12.767Z,25.53
2022-08-14T12:19:50.866Z,26.58
2022-08-14T12:22:52.390Z,27.21
2022-08-14T12:25:24.973Z,28.10
2022-08-14T12:27:59.234Z,28.66
2022-08-14T12:30:39.367Z,29.39
2022-08-14T12:33:25.604Z,30.29
2022-08-14T12:35:58.120Z,30.90
2022-08-14T12:38:40.698Z,31.59
2022-08-14T12:41:20.803Z,31.68
2022-08-14T12:43:56.831Z,32.29
2022-08-14T12:46:33.242Z,32.37
2022-08-14T12:49:11.006Z,32.41
2022-08-14T12:51:42.279Z,32.53
2022-08-14T12:54:18.602Z,32.86
2022-08-14T12:57:06.498Z,32.83
2022-08-14T12:59:42.733Z,32.56
2022-08-14T13:02:26.341Z,32.64
2022-08-14T13:04:58.622Z,32.31
2022-08-14T13:07:32.032Z,31.73
2022-08-14T13:10:45.757Z,31.39
2022-08-14T13:15:45.333Z,31.79
2022-08-14T13:18:17.596Z,32.27
2022-08-14T13:20:49.807Z,32.31
2022-08-14T13:23:36.363Z,33.03
2022-08-14T13:26:07.799Z,33.40
2022-08-14T13:29:02.181Z,33.51
2022-08-14T13:31:34.075Z,33.97
2022-08-14T13:34:04.571Z,34.28
2022-08-14T13:36:54.618Z,34.54
2022-08-14T13:39:24.798Z,34.02
2022-08-14T13:41:57.898Z,32.96
2022-08-14T13:44:28.179Z,31.79
2022-08-14T13:46:57.978Z,30.22
2022-08-14T13:49:29.071Z,29.48
2022-08-14T13:52:01.458Z,28.65
2022-08-14T13:54:34.139Z,27.97
2022-08-14T13:57:03.701Z,27.01
2022-08-14T13:59:38.053Z,26.72
2022-08-14T14:02:08.315Z,27.90
2022-08-14T14:04:40.976Z,28.49
2022-08-14T14:07:12.470Z,28.48
2022-08-14T14:09:51.109Z,29.11
2022-08-14T14:12:38.163Z,29.62
2022-08-14T14:15:12.991Z,29.79
2022-08-14T14:17:44.332Z,29.96
2022-08-14T14:20:35.388Z,29.99
2022-08-14T14:23:11.667Z,30.31
2022-08-14T14:25:49.341Z,31.24
2022-08-14T14:28:30.694Z,30.95
2022-08-14T14:31:06.044Z,31.49
2022-08-14T14:33:49.966Z,32.21
2022-08-14T14:36:26.060Z,32.87
2022-08-14T14:38:57.487Z,33.06
2022-08-14T14:41:37.634Z,33.31
2022-08-14T14:44:15.885Z,33.91
2022-08-14T14:46:50.135Z,34.56
2022-08-14T14:49:21.713Z,35.27
2022-08-14T14:51:52.470Z,35.92
2022-08-14T14:54:31.939Z,36.50
2022-08-14T14:57:09.119Z,36.77
2022-08-14T14:59:38.851Z,36.98
2022-08-14T15:02:09.355Z,37.52
2022-08-14T15:04:43.617Z,38.17
2022-08-14T15:07:16.217Z,38.71
2022-08-14T15:09:45.178Z,39.35
2022-08-14T15:12:55.452Z,39.74
2022-08-14T15:15:09.242Z,40.10
2022-08-14T15:17:41.765Z,40.44
2022-08-14T15:20:17.213Z,40.58
2022-08-14T15:23:12.219Z,40.44
2022-08-14T15:25:52.949Z,40.37
2022-08-14T15:28:23.242Z,40.72
2022-08-14T15:30:59.093Z,40.84
2022-08-14T15:34:13.271Z,41.18
2022-08-14T15:36:38.179Z,41.71
2022-08-14T15:39:07.513Z,41.83
2022-08-14T15:41:41.602Z,41.82
2022-08-14T15:44:25.319Z,42.11
2022-08-14T15:46:58.291Z,42.19
2022-08-14T15:49:33.137Z,42.24
2022-08-14T15:52:06.099Z,42.64
2022-08-14T15:54:37.603Z,42.97
2022-08-14T15:57:10.003Z,43.27
2022-08-14T15:59:58.693Z,43.47
2022-08-14T16:02:28.158Z,43.44
2022-08-14T16:04:57.452Z,43.87
2022-08-14T16:07:27.179Z,43.79
2022-08-14T16:10:27.732Z,44.38
2022-08-14T16:12:54.626Z,44.95
2022-08-14T16:15:23.643Z,45.65
2022-08-14T16:17:53.954Z,46.09
2022-08-14T16:20:42.317Z,46.63
2022-08-14T16:23:12.067Z,46.86
2022-08-14T16:25:44.205Z,46.99
2022-08-14T16:28:27.343Z,47.43
2022-08-14T16:30:56.605Z,47.98
2022-08-14T16:33:27.862Z,47.98
2022-08-14T16:39:11.931Z,48.73
2022-08-14T16:41:40.974Z,49.07
2022-08-14T16:44:22.119Z,49.40
2022-08-14T16:47:03.990Z,49.74
2022-08-14T16:50:02.835Z,50.04
2022-08-14T16:52:26.058Z,49.57
2022-08-14T16:55:13.839Z,49.27
2022-08-14T16:57:54.148Z,48.52
2022-08-14T17:00:29.647Z,48.27
2022-08-14T17:03:08.512Z,48.43
2022-08-14T17:05:43.030Z,48.26
2022-08-14T17:08:32.487Z,48.42
2022-08-14T17:11:10.217Z,48.19
2022-08-14T17:13:59.854Z,48.15
2022-08-14T17:16:35.882Z,48.05
2022-08-14T17:19:09.784Z,48.12
2022-08-14T17:21:47.518Z,48.31
2022-08-14T17:24:58.414Z,48.58
2022-08-14T17:27:08.178Z,48.40
2022-08-14T17:29:44.562Z,48.78
2022-08-14T17:32:55.700Z,49.13
2022-08-14T17:35:58.016Z,49.32
2022-08-14T17:38:33.704Z,49.66
2022-08-14T17:41:22.302Z,49.64
2022-08-14T17:43:54.950Z,49.99
2022-08-14T17:46:43.417Z,50.18
2022-08-14T17:49:17.536Z,50.07
2022-08-14T17:52:03.153Z,49.95
2022-08-14T17:54:40.346Z,49.64
2022-08-14T17:57:15.429Z,49.53
2022-08-14T17:59:50.155Z,49.52
2022-08-14T18:02:22.044Z,49.40
2022-08-14T18:04:51.810Z,49.31
2022-08-14T18:07:59.524Z,49.32
2022-08-14T18:10:31.959Z,49.36
2022-08-14T18:13:05.340Z,49.56
2022-08-14T18:15:41.461Z,49.70
2022-08-14T18:18:11.823Z,49.78
2022-08-14T18:21:24.679Z,49.77
2022-08-14T18:23:35.205Z,49.83
2022-08-14T18:26:37.208Z,49.87
2022-08-14T18:29:01.817Z,49.69
2022-08-14T18:31:43.438Z,49.76
2022-08-14T18:34:31.311Z,49.96
2022-08-14T18:37:17.783Z,50.39
2022-08-14T18:40:02.082Z,50.64
2022-08-14T18:42:45.483Z,50.95
2022-08-14T18:45:18.731Z,51.21
2022-08-14T18:48:14.611Z,51.38
2022-08-14T18:50:52.280Z,51.73
2022-08-14T18:53:34.162Z,52.07
2022-08-14T18:56:09.834Z,52.28
2022-08-14T18:58:57.276Z,52.56
2022-08-14T19:01:29.805Z,52.80
2022-08-14T19:04:00.290Z,53.06
2022-08-14T19:06:55.830Z,53.29
2022-08-14T19:09:57.960Z,53.40
2022-08-14T19:13:04.267Z,53.55
2022-08-14T19:15:36.232Z,53.70
2022-08-14T19:18:25.854Z,53.77
2022-08-14T19:21:01.187Z,53.94
2022-08-14T19:23:44.100Z,53.97
2022-08-14T19:26:35.687Z,54.04
2022-08-14T19:29:36.238Z,54.19
2022-08-14T19:32:38.462Z,54.31
2022-08-14T19:35:55.541Z,54.40
2022-08-14T19:38:47.365Z,54.48
2022-08-14T19:41:18.889Z,54.65
2022-08-14T19:43:56.952Z,54.39
2022-08-14T19:46:38.849Z,54.08
2022-08-14T19:50:07.997Z,54.08
2022-08-14T19:52:24.736Z,54.14
2022-08-14T19:54:54.814Z,54.07
2022-08-14T19:57:32.916Z,54.20
2022-08-14T20:00:28.700Z,54.18
2022-08-14T20:03:11.965Z,54.31
2022-08-14T20:05:46.848Z,54.42
2022-08-14T20:09:05.352Z,54.53
2022-08-14T20:12:01.135Z,54.74
2022-08-14T20:14:20.762Z,54.85
2022-08-14T20:16:54.303Z,54.90
2022-08-14T20:19:29.636Z,55.09
2022-08-14T20:22:35.135Z,55.01
2022-08-14T20:24:54.045Z,55.09
2022-08-14T20:27:39.181Z,55.23
2022-08-14T20:30:29.660Z,55.15
2022-08-14T20:33:07.404Z,55.41
2022-08-14T20:35:42.257Z,55.59
2022-08-14T20:38:29.806Z,55.52
2022-08-14T20:41:05.764Z,55.60
2022-08-14T20:44:06.601Z,55.69
2022-08-14T20:47:15.967Z,55.75
2022-08-14T20:50:18.098Z,55.87
2022-08-14T20:52:51.840Z,55.83
2022-08-14T20:55:29.535Z,55.83
2022-08-14T20:58:43.454Z,55.88
2022-08-14T21:01:33.146Z,55.91
2022-08-14T21:04:27.116Z,56.17
2022-08-14T21:07:36.551Z,56.29
2022-08-14T21:10:35.412Z,56.10
2022-08-14T21:13:26.685Z,56.24
2022-08-14T21:15:56.672Z,56.37
2022-08-14T21:18:34.063Z,56.36
2022-08-14T21:21:19.386Z,56.55
2022-08-14T21:23:54.699Z,56.44
2022-08-14T21:26:52.070Z,56.50
2022-08-14T21:29:25.356Z,56.58
2022-08-14T21:32:33.873Z,56.62
2022-08-14T21:35:10.234Z,56.60
2022-08-14T21:38:17.902Z,56.54
2022-08-14T21:40:58.680Z,56.65
2022-08-14T21:43:31.155Z,56.74
2022-08-14T21:46:01.953Z,56.73
2022-08-14T21:48:35.850Z,56.75
2022-08-14T21:51:53.725Z,56.72
2022-08-14T21:54:30.380Z,56.74
2022-08-14T21:57:14.970Z,56.69
2022-08-14T22:00:02.029Z,56.93
2022-08-14T22:02:35.205Z,57.00
2022-08-14T22:05:25.057Z,57.01
2022-08-14T22:08:14.149Z,57.28
2022-08-14T22:10:46.596Z,57.22
2022-08-14T22:13:46.499Z,57.24
2022-08-14T22:16:59.702Z,57.25
2022-08-14T22:19:43.153Z,57.36
2022-08-14T22:22:44.004Z,57.27
2022-08-14T22:25:16.311Z,57.32
2022-08-14T22:27:55.535Z,57.32
2022-08-14T22:30:27.841Z,57.24
2022-08-14T22:33:00.483Z,57.32
2022-08-14T22:35:33.289Z,57.46
2022-08-14T22:38:37.107Z,57.48
2022-08-14T22:41:27.853Z,57.56
2022-08-14T22:44:07.321Z,57.63
2022-08-14T22:46:58.528Z,57.75
2022-08-14T22:50:28.943Z,57.79
2022-08-14T22:52:38.517Z,57.97
2022-08-14T22:55:15.618Z,58.09
2022-08-14T22:57:58.173Z,58.28
2022-08-14T23:00:31.020Z,58.40
2022-08-14T23:03:17.052Z,58.52
2022-08-14T23:05:57.530Z,58.59
2022-08-14T23:09:01.896Z,58.72
2022-08-14T23:11:46.750Z,58.83
2022-08-14T23:14:23.872Z,58.98
2022-08-14T23:17:03.597Z,59.18
2022-08-14T23:19:42.924Z,59.25
2022-08-14T23:22:29.158Z,59.47
2022-08-14T23:24:59.456Z,59.74
2022-08-14T23:28:03.387Z,59.77
2022-08-14T23:30:34.533Z,60.09
2022-08-14T23:33:25.352Z,60.32
2022-08-14T23:36:00.004Z,60.48
2022-08-14T23:38:39.776Z,60.82
2022-08-14T23:41:16.980Z,61.04
2022-08-14T23:44:24.347Z,61.26
2022-08-14T23:47:26.861Z,61.66
2022-08-14T23:50:03.358Z,62.11
2022-08-14T23:53:06.829Z,62.43
2022-08-14T23:56:09.919Z,63.08
2022-08-14T23:58:42.217Z,63.57
